createdAt,value
2022-07-26T00:00:14.500Z,19.30
2022-07-26T00:03:18.458Z,19.28
2022-07-26T00:06:20.364Z,19.26
2022-07-26T00:09:22.954Z,19.26
2022-07-26T00:12:24.916Z,19.20
2022-07-26T00:15:27.473Z,19.17
2022-07-26T00:18:30.745Z,19.17
2022-07-26T00:21:32.875Z,19.12
2022-07-26T00:24:35.600Z,19.07
2022-07-26T00:27:39.360Z,19.07
2022-07-26T00:30:41.123Z,19.11
2022-07-26T00:33:44.563Z,19.11
2022-07-26T00:36:46.300Z,19.08
2022-07-26T00:39:48.493Z,19.02
2022-07-26T00:42:51.235Z,19.01
2022-07-26T00:45:53.229Z,18.99
2022-07-26T00:48:56.933Z,18.98
2022-07-26T00:52:00.194Z,18.96
2022-07-26T00:55:02.503Z,18.97
2022-07-26T00:58:06.513Z,18.93
2022-07-26T01:01:08.543Z,18.90
2022-07-26T01:04:11.974Z,18.88
2022-07-26T01:07:14.997Z,18.85
2022-07-26T01:10:17.447Z,18.81
2022-07-26T01:13:19.813Z,18.77
2022-07-26T01:16:21.706Z,18.74
2022-07-26T01:19:25.184Z,18.71
2022-07-26T01:22:29.818Z,18.67
2022-07-26T01:25:32.647Z,18.66
2022-07-26T01:28:47.012Z,18.67
2022-07-26T01:31:49.075Z,18.69
2022-07-26T01:34:50.932Z,18.63
2022-07-26T01:37:54.400Z,18.68
2022-07-26T01:40:56.374Z,18.66
2022-07-26T01:43:59.693Z,18.66
2022-07-26T01:47:04.546Z,18.61
2022-07-26T01:50:07.947Z,18.59
2022-07-26T01:53:11.709Z,18.56
2022-07-26T01:56:14.089Z,18.51
2022-07-26T01:59:16.260Z,18.46
2022-07-26T02:02:18.056Z,18.48
2022-07-26T02:05:21.312Z,18.47
2022-07-26T02:08:24.325Z,18.42
2022-07-26T02:11:26.316Z,18.41
2022-07-26T02:14:28.267Z,18.41
2022-07-26T02:17:30.120Z,18.32
2022-07-26T02:20:33.397Z,18.30
2022-07-26T02:23:41.226Z,18.28
2022-07-26T02:26:52.372Z,18.23
2022-07-26T02:29:57.131Z,18.18
2022-07-26T02:32:59.034Z,18.10
2022-07-26T02:36:01.101Z,18.11
2022-07-26T02:39:04.249Z,18.09
2022-07-26T02:42:06.239Z,18.04
2022-07-26T02:45:08.471Z,18.01
2022-07-26T02:48:10.490Z,17.96
2022-07-26T02:51:12.266Z,18.00
2022-07-26T02:54:15.978Z,18.06
2022-07-26T02:57:17.835Z,18.07
2022-07-26T03:00:20.796Z,18.05
2022-07-26T03:03:22.779Z,18.03
2022-07-26T03:06:24.327Z,18.04
2022-07-26T03:09:27.394Z,18.01
2022-07-26T03:12:29.248Z,17.99
2022-07-26T03:15:31.021Z,18.00
2022-07-26T03:18:32.827Z,17.99
2022-07-26T03:21:37.831Z,17.96
2022-07-26T03:24:42.708Z,17.93
2022-07-26T03:27:44.519Z,17.90
2022-07-26T03:30:46.369Z,17.87
2022-07-26T03:33:48.244Z,17.83
2022-07-26T03:36:50.169Z,17.81
2022-07-26T03:39:53.654Z,17.79
2022-07-26T03:42:55.414Z,17.80
2022-07-26T03:45:57.117Z,17.76
2022-07-26T03:48:58.948Z,17.68
2022-07-26T03:52:03.284Z,17.67
2022-07-26T03:55:26.990Z,17.68
2022-07-26T03:58:28.766Z,17.68
2022-07-26T04:01:30.726Z,17.56
2022-07-26T04:04:32.605Z,17.53
2022-07-26T04:07:34.239Z,17.53
2022-07-26T04:10:37.944Z,17.52
2022-07-26T04:13:39.940Z,17.50
2022-07-26T04:16:43.806Z,17.47
2022-07-26T04:19:45.774Z,17.52
2022-07-26T04:22:47.480Z,17.55
2022-07-26T04:25:52.021Z,17.51
2022-07-26T04:28:53.884Z,17.52
2022-07-26T04:31:55.875Z,17.51
2022-07-26T04:34:57.713Z,17.51
2022-07-26T04:37:59.551Z,17.51
2022-07-26T04:41:07.642Z,17.50
2022-07-26T04:44:09.819Z,17.51
2022-07-26T04:47:12.078Z,17.50
2022-07-26T04:50:13.963Z,17.35
2022-07-26T04:53:17.339Z,17.08
2022-07-26T04:56:20.395Z,16.82
2022-07-26T04:59:22.364Z,16.65
2022-07-26T05:02:24.506Z,16.57
2022-07-26T05:05:27.559Z,16.55
2022-07-26T05:08:29.322Z,16.50
2022-07-26T05:11:32.624Z,16.48
2022-07-26T05:14:34.476Z,16.46
2022-07-26T05:17:38.617Z,16.47
2022-07-26T05:20:41.921Z,16.55
2022-07-26T05:23:43.810Z,16.53
2022-07-26T05:26:46.998Z,16.57
2022-07-26T05:29:53.796Z,16.57
2022-07-26T05:32:55.671Z,16.57
2022-07-26T05:35:57.332Z,16.62
2022-07-26T05:39:03.393Z,16.61
2022-07-26T05:42:15.018Z,16.61
2022-07-26T05:45:21.131Z,16.63
2022-07-26T05:48:22.662Z,16.63
2022-07-26T05:51:24.488Z,16.72
2022-07-26T05:54:26.259Z,16.73
2022-07-26T05:57:37.726Z,16.78
2022-07-26T06:00:39.416Z,16.90
2022-07-26T06:03:41.060Z,16.87
2022-07-26T06:06:43.975Z,16.89
2022-07-26T06:09:47.710Z,16.88
2022-07-26T06:12:52.641Z,16.96
2022-07-26T06:15:54.471Z,16.97
2022-07-26T06:18:56.512Z,17.00
2022-07-26T06:21:58.235Z,17.10
2022-07-26T06:25:00.009Z,17.12
2022-07-26T06:28:03.974Z,17.19
2022-07-26T06:31:06.163Z,17.23
2022-07-26T06:34:07.904Z,17.33
2022-07-26T06:37:15.201Z,17.37
2022-07-26T06:40:17.087Z,17.34
2022-07-26T06:43:20.800Z,17.36
2022-07-26T06:46:22.836Z,17.52
2022-07-26T06:49:24.732Z,17.73
2022-07-26T06:52:26.724Z,17.81
2022-07-26T06:55:28.600Z,17.73
2022-07-26T06:58:35.942Z,17.62
2022-07-26T07:01:57.912Z,17.65
2022-07-26T07:05:01.730Z,17.62
2022-07-26T07:08:03.721Z,17.83
2022-07-26T07:11:05.806Z,17.93
2022-07-26T07:14:10.619Z,18.04
2022-07-26T07:17:17.155Z,18.00
2022-07-26T07:20:22.155Z,18.17
2022-07-26T07:23:27.187Z,18.24
2022-07-26T07:26:29.366Z,18.39
2022-07-26T07:29:32.851Z,18.53
2022-07-26T07:32:34.683Z,18.59
2022-07-26T07:35:38.662Z,18.62
2022-07-26T07:38:42.841Z,18.60
2022-07-26T07:41:45.191Z,18.77
2022-07-26T07:44:54.595Z,18.86
2022-07-26T07:47:56.460Z,18.74
2022-07-26T07:50:58.302Z,18.52
2022-07-26T07:54:05.127Z,18.58
2022-07-26T07:57:07.593Z,18.60
2022-07-26T08:00:12.928Z,18.55
2022-07-26T08:03:18.753Z,18.65
2022-07-26T08:06:21.176Z,18.70
2022-07-26T08:09:24.369Z,18.73
2022-07-26T08:12:26.226Z,18.73
2022-07-26T08:15:29.718Z,18.64
2022-07-26T08:18:32.937Z,18.85
2022-07-26T08:21:35.523Z,18.96
2022-07-26T08:24:37.339Z,19.09
2022-07-26T08:27:41.125Z,19.11
2022-07-26T08:30:44.775Z,19.13
2022-07-26T08:33:47.268Z,19.00
2022-07-26T08:37:15.278Z,18.87
2022-07-26T08:40:14.162Z,19.10
2022-07-26T08:43:16.402Z,19.32
2022-07-26T08:46:24.890Z,19.35
2022-07-26T08:49:28.095Z,19.36
2022-07-26T08:52:30.135Z,19.42
2022-07-26T08:55:50.226Z,19.26
2022-07-26T08:58:55.820Z,19.19
2022-07-26T09:01:59.860Z,19.18
2022-07-26T09:05:05.095Z,19.13
2022-07-26T09:08:21.822Z,19.34
2022-07-26T09:11:31.092Z,19.42
2022-07-26T09:14:36.513Z,19.48
2022-07-26T09:17:41.046Z,19.83
2022-07-26T09:20:46.625Z,19.71
2022-07-26T09:23:48.571Z,19.81
2022-07-26T09:26:55.644Z,19.92
2022-07-26T09:30:08.038Z,19.94
2022-07-26T09:33:11.166Z,20.01
2022-07-26T09:36:12.932Z,20.21
2022-07-26T09:39:15.398Z,20.22
2022-07-26T09:42:28.649Z,20.14
2022-07-26T09:45:31.815Z,20.34
2022-07-26T09:49:09.428Z,20.57
2022-07-26T09:52:01.191Z,20.39
2022-07-26T09:55:05.420Z,20.56
2022-07-26T09:58:07.526Z,20.48
2022-07-26T10:01:09.304Z,19.98
2022-07-26T10:04:14.116Z,19.64
2022-07-26T10:07:20.302Z,19.18
2022-07-26T10:10:24.161Z,18.89
2022-07-26T10:13:27.101Z,18.56
2022-07-26T10:16:29.295Z,18.39
2022-07-26T10:19:45.746Z,18.29
2022-07-26T10:22:50.829Z,18.21
2022-07-26T10:25:54.099Z,18.05
2022-07-26T10:28:56.351Z,18.16
2022-07-26T10:32:16.084Z,18.20
2022-07-26T10:35:32.800Z,18.10
2022-07-26T10:38:34.706Z,18.04
2022-07-26T10:41:37.661Z,18.02
2022-07-26T10:44:39.602Z,18.08
2022-07-26T10:48:01.650Z,18.20
2022-07-26T10:51:23.920Z,18.24
2022-07-26T10:54:26.255Z,18.09
2022-07-26T10:57:29.125Z,17.94
2022-07-26T11:00:31.281Z,17.82
2022-07-26T11:03:38.941Z,17.72
2022-07-26T11:06:42.794Z,17.60
2022-07-26T11:09:44.965Z,17.54
2022-07-26T11:12:46.842Z,17.50
2022-07-26T11:15:50.005Z,17.50
2022-07-26T11:18:52.653Z,17.51
2022-07-26T11:21:58.703Z,17.56
2022-07-26T11:25:00.825Z,17.55
2022-07-26T11:28:03.809Z,17.58
2022-07-26T11:31:09.287Z,17.67
2022-07-26T11:34:17.284Z,17.70
2022-07-26T11:37:20.284Z,17.67
2022-07-26T11:40:40.936Z,17.51
2022-07-26T11:43:44.775Z,17.45
2022-07-26T11:46:50.070Z,17.39
2022-07-26T11:50:16.418Z,17.33
2022-07-26T11:53:25.538Z,17.21
2022-07-26T11:56:28.138Z,17.21
2022-07-26T11:59:30.736Z,17.20
2022-07-26T12:02:33.247Z,17.26
2022-07-26T12:05:35.554Z,17.26
2022-07-26T12:08:45.937Z,17.27
2022-07-26T12:11:49.148Z,17.26
2022-07-26T12:15:01.046Z,17.27
2022-07-26T12:18:02.771Z,17.30
2022-07-26T12:21:07.054Z,17.37
2022-07-26T12:24:12.732Z,17.50
2022-07-26T12:27:16.222Z,17.60
2022-07-26T12:30:18.489Z,17.67
2022-07-26T12:33:20.520Z,17.67
2022-07-26T12:36:28.468Z,17.57
2022-07-26T12:39:32.253Z,17.54
2022-07-26T12:42:39.022Z,17.55
2022-07-26T12:45:40.902Z,17.56
2022-07-26T12:48:45.918Z,17.82
2022-07-26T12:51:47.921Z,17.96
2022-07-26T12:54:52.349Z,18.00
2022-07-26T12:57:55.871Z,17.95
2022-07-26T13:00:59.199Z,17.80
2022-07-26T13:04:01.255Z,17.88
2022-07-26T13:07:03.466Z,17.86
2022-07-26T13:13:32.104Z,17.79
2022-07-26T13:16:34.002Z,17.71
2022-07-26T13:19:36.344Z,17.75
2022-07-26T13:22:38.124Z,17.73
2022-07-26T13:25:41.827Z,17.75
2022-07-26T13:28:44.936Z,17.74
2022-07-26T13:31:51.802Z,17.71
2022-07-26T13:34:53.512Z,17.63
2022-07-26T13:37:55.445Z,17.56
2022-07-26T13:40:58.688Z,17.52
2022-07-26T13:44:00.794Z,17.50
2022-07-26T13:47:02.626Z,17.51
2022-07-26T13:50:04.814Z,17.59
2022-07-26T13:53:09.978Z,17.66
2022-07-26T13:56:13.383Z,17.61
2022-07-26T13:59:15.748Z,17.56
2022-07-26T14:02:17.818Z,17.54
2022-07-26T14:05:20.019Z,17.61
2022-07-26T14:08:22.200Z,17.58
2022-07-26T14:11:25.717Z,17.54
2022-07-26T14:14:27.582Z,17.43
2022-07-26T14:17:29.452Z,17.41
2022-07-26T14:20:31.878Z,17.45
2022-07-26T14:23:33.831Z,17.43
2022-07-26T14:26:38.252Z,17.39
2022-07-26T14:29:40.165Z,17.35
2022-07-26T14:32:42.271Z,17.29
2022-07-26T14:35:47.019Z,17.29
2022-07-26T14:38:50.121Z,17.30
2022-07-26T14:41:53.488Z,17.18
2022-07-26T14:44:55.588Z,17.07
2022-07-26T14:47:57.503Z,17.04
2022-07-26T14:51:09.239Z,17.01
2022-07-26T14:54:13.338Z,16.88
2022-07-26T14:57:21.284Z,16.71
2022-07-26T15:00:26.975Z,16.72
2022-07-26T15:03:33.871Z,16.74
2022-07-26T15:06:36.332Z,16.70
2022-07-26T15:09:38.554Z,16.59
2022-07-26T15:12:45.725Z,16.52
2022-07-26T15:15:47.943Z,16.50
2022-07-26T15:18:51.342Z,16.53
2022-07-26T15:21:54.344Z,16.56
2022-07-26T15:24:56.478Z,16.50
2022-07-26T15:27:59.805Z,16.41
2022-07-26T15:31:02.196Z,16.36
2022-07-26T15:34:03.963Z,16.26
2022-07-26T15:37:07.570Z,16.24
2022-07-26T15:40:09.791Z,16.15
2022-07-26T15:43:20.955Z,16.18
2022-07-26T15:46:25.516Z,16.12
2022-07-26T15:49:28.654Z,16.06
2022-07-26T15:52:30.581Z,16.09
2022-07-26T15:55:35.616Z,16.22
2022-07-26T15:58:38.983Z,16.36
2022-07-26T16:01:40.676Z,16.41
2022-07-26T16:04:42.330Z,16.40
2022-07-26T16:07:44.625Z,16.46
2022-07-26T16:10:46.718Z,16.56
2022-07-26T16:13:53.180Z,16.59
2022-07-26T16:17:04.046Z,16.64
2022-07-26T16:20:07.047Z,16.73
2022-07-26T16:23:09.665Z,16.71
2022-07-26T16:26:11.991Z,16.69
2022-07-26T16:29:15.861Z,16.72
2022-07-26T16:32:18.174Z,16.75
2022-07-26T16:35:19.766Z,16.61
2022-07-26T16:38:22.138Z,16.56
2022-07-26T16:41:27.003Z,16.57
2022-07-26T16:44:30.723Z,16.59
2022-07-26T16:47:32.705Z,16.61
2022-07-26T16:50:34.799Z,16.73
2022-07-26T16:53:36.707Z,16.69
2022-07-26T16:56:38.645Z,16.63
2022-07-26T16:59:42.455Z,16.59
2022-07-26T17:02:44.765Z,16.72
2022-07-26T17:05:47.206Z,16.77
2022-07-26T17:08:51.292Z,16.77
2022-07-26T17:11:53.402Z,16.68
2022-07-26T17:14:56.711Z,16.75
2022-07-26T17:17:58.455Z,16.83
2022-07-26T17:21:01.125Z,16.77
2022-07-26T17:24:05.668Z,16.71
2022-07-26T17:27:07.825Z,16.73
2022-07-26T17:30:11.848Z,16.76
2022-07-26T17:33:13.713Z,16.80
2022-07-26T17:36:22.774Z,16.87
2022-07-26T17:39:24.853Z,16.92
2022-07-26T17:42:46.610Z,16.86
2022-07-26T17:45:55.598Z,16.83
2022-07-26T17:48:57.379Z,16.77
2022-07-26T17:52:03.476Z,16.87
2022-07-26T17:55:08.878Z,16.85
2022-07-26T17:58:13.039Z,16.88
2022-07-26T18:01:16.313Z,16.87
2022-07-26T18:04:19.432Z,16.89
2022-07-26T18:07:21.512Z,16.92
2022-07-26T18:10:23.389Z,16.97
2022-07-26T18:13:26.027Z,16.98
2022-07-26T18:16:29.585Z,16.89
2022-07-26T18:19:33.109Z,16.90
2022-07-26T18:22:34.994Z,16.89
2022-07-26T18:25:36.877Z,16.87
2022-07-26T18:28:38.750Z,16.88
2022-07-26T18:31:44.468Z,16.84
2022-07-26T18:34:51.722Z,16.81
2022-07-26T18:37:55.251Z,16.78
2022-07-26T18:40:57.194Z,16.75
2022-07-26T18:43:59.227Z,16.72
2022-07-26T18:47:03.224Z,16.68
2022-07-26T18:50:05.747Z,16.61
2022-07-26T18:53:08.384Z,16.58
2022-07-26T18:56:10.212Z,16.54
2022-07-26T18:59:12.446Z,16.45
2022-07-26T19:02:15.834Z,16.41
2022-07-26T19:05:18.314Z,16.38
2022-07-26T19:08:20.141Z,16.36
2022-07-26T19:11:21.997Z,16.33
2022-07-26T19:14:23.743Z,16.29
2022-07-26T19:17:27.623Z,16.27
2022-07-26T19:20:38.605Z,16.23
2022-07-26T19:23:40.656Z,16.20
2022-07-26T19:26:42.393Z,16.16
2022-07-26T19:29:43.918Z,16.15
2022-07-26T19:32:49.104Z,16.18
2022-07-26T19:35:51.036Z,16.19
2022-07-26T19:38:52.802Z,16.20
2022-07-26T19:41:54.803Z,16.19
2022-07-26T19:44:56.712Z,16.15
2022-07-26T19:48:00.037Z,16.08
2022-07-26T19:51:02.031Z,16.02
2022-07-26T19:54:03.790Z,15.94
2022-07-26T19:57:05.550Z,15.89
2022-07-26T20:00:08.545Z,15.85
2022-07-26T20:03:12.149Z,15.83
2022-07-26T20:06:15.519Z,15.80
2022-07-26T20:09:17.352Z,15.74
2022-07-26T20:12:19.678Z,15.68
2022-07-26T20:15:24.241Z,15.60
2022-07-26T20:18:30.722Z,15.54
2022-07-26T20:21:32.575Z,15.54
2022-07-26T20:24:34.484Z,15.57
2022-07-26T20:27:36.660Z,15.61
2022-07-26T20:30:40.026Z,15.63
2022-07-26T20:33:43.260Z,15.60
2022-07-26T20:36:45.288Z,15.59
2022-07-26T20:39:47.152Z,15.58
2022-07-26T20:42:50.966Z,15.56
2022-07-26T20:45:52.895Z,15.53
2022-07-26T20:48:56.469Z,15.53
2022-07-26T20:51:58.358Z,15.51
2022-07-26T20:55:00.447Z,15.47
2022-07-26T20:58:02.427Z,15.41
2022-07-26T21:01:04.307Z,15.35
2022-07-26T21:04:07.737Z,15.33
2022-07-26T21:07:10.835Z,15.26
2022-07-26T21:10:13.008Z,15.22
2022-07-26T21:13:14.991Z,15.16
2022-07-26T21:16:17.017Z,15.13
2022-07-26T21:19:20.586Z,15.07
2022-07-26T21:22:22.416Z,15.00
2022-07-26T21:25:24.257Z,14.92
2022-07-26T21:28:26.994Z,14.86
2022-07-26T21:31:28.856Z,14.85
2022-07-26T21:34:34.260Z,14.78
2022-07-26T21:37:38.786Z,14.78
2022-07-26T21:40:40.730Z,14.73
2022-07-26T21:43:42.636Z,14.73
2022-07-26T21:46:44.656Z,14.71
2022-07-26T21:49:52.369Z,14.65
2022-07-26T21:52:57.089Z,14.64
2022-07-26T21:56:03.244Z,14.60
2022-07-26T21:59:05.250Z,14.56
2022-07-26T22:02:07.432Z,14.55
2022-07-26T22:05:29.773Z,14.56
2022-07-26T22:08:31.866Z,14.55
2022-07-26T22:11:35.004Z,14.50
2022-07-26T22:14:37.418Z,14.51
2022-07-26T22:17:42.084Z,14.44
2022-07-26T22:20:47.479Z,14.42
2022-07-26T22:23:53.331Z,14.38
2022-07-26T22:26:55.046Z,14.35
2022-07-26T22:29:57.058Z,14.34
2022-07-26T22:32:59.503Z,14.36
2022-07-26T22:36:11.300Z,14.36
2022-07-26T22:39:20.557Z,14.36
2022-07-26T22:42:22.484Z,14.34
2022-07-26T22:45:24.674Z,14.38
2022-07-26T22:48:26.631Z,14.34
2022-07-26T22:51:29.768Z,14.28
2022-07-26T22:54:31.811Z,14.29
2022-07-26T22:57:33.993Z,14.28
2022-07-26T23:00:36.029Z,14.28
2022-07-26T23:03:38.336Z,14.29
2022-07-26T23:06:46.381Z,14.27
2022-07-26T23:09:49.715Z,14.24
2022-07-26T23:12:56.825Z,14.20
2022-07-26T23:16:01.310Z,14.21
2022-07-26T23:19:04.570Z,14.18
2022-07-26T23:22:12.360Z,14.14
2022-07-26T23:25:16.592Z,14.12
2022-07-26T23:28:35.269Z,14.09
2022-07-26T23:31:40.188Z,14.04
2022-07-26T23:34:42.348Z,14.01
2022-07-26T23:37:46.073Z,13.99
2022-07-26T23:40:49.269Z,13.98
2022-07-26T23:43:51.034Z,13.97
2022-07-26T23:46:52.717Z,13.92
2022-07-26T23:49:56.590Z,13.90
2022-07-26T23:53:00.139Z,13.88
2022-07-26T23:56:02.560Z,13.82
2022-07-26T23:59:07.806Z,13.80
